Time;durP1;ratioP1;P1;durP2;ratioP2;P2;SDS_P1;SDS_P2;PMS_P1;PMS_P2;Temp;Humidity;BMP_temperature;BMP_pressure;BME280_temperature;BME280_humidity;BME280_pressure;Samples;Min_cycle;Max_cycle;Signal;HPM_P1;HPM_P2
2022/03/19 00:02:07;;;;;;;18.40;3.75;;;;;;;;;;4974456;28;20049;-57
2022/03/19 00:04:36;;;;;;;12.88;2.80;;;3.00;99.90;;;;;;4991209;28;20054;-56
2022/03/19 00:07:02;;;;;;;18.63;4.20;;;;;;;;;;4990483;28;20046;-57
2022/03/19 00:09:28;;;;;;;19.98;3.00;;;;;;;;;;4991334;28;20580;-57
2022/03/19 00:11:54;;;;;;;22.20;3.45;;;;;;;;;;4991239;28;20352;-57
2022/03/19 00:14:21;;;;;;;18.33;3.53;;;;;;;;;;4974950;28;20129;-56
2022/03/19 00:16:47;;;;;;;12.85;3.10;;;;;;;;;;4991900;28;20042;-56
2022/03/19 00:19:13;;;;;;;25.15;5.47;;;;;;;;;;4993717;28;20046;-57
2022/03/19 00:21:40;;;;;;;29.10;4.03;;;2.60;99.90;;;;;;4993457;28;20049;-56
2022/03/19 00:24:06;;;;;;;17.20;3.65;;;2.70;99.90;;;;;;4991739;28;20052;-56
2022/03/19 00:26:33;;;;;;;14.75;3.97;;;;;;;;;;4993321;28;20046;-57
2022/03/19 00:28:59;;;;;;;19.67;3.42;;;;;;;;;;4992826;28;20510;-56
2022/03/19 00:31:25;;;;;;;19.45;3.30;;;;;;;;;;4993206;28;20073;-56
2022/03/19 00:33:51;;;;;;;20.63;3.00;;;;;;;;;;4993035;28;20863;-56
2022/03/19 00:36:17;;;;;;;17.27;3.55;;;;;;;;;;4993182;28;20561;-56
2022/03/19 00:38:44;;;;;;;19.50;3.83;;;;;;;;;;4996195;28;20052;-56
2022/03/19 00:41:10;;;;;;;13.77;2.85;;;;;;;;;;4996721;28;20049;-56
2022/03/19 00:43:38;;;;;;;13.43;3.15;;;2.90;99.90;;;;;;4996460;28;20129;-56
2022/03/19 00:46:04;;;;;;;12.18;2.83;;;;;;;;;;4996020;28;20042;-55
2022/03/19 00:48:30;;;;;;;18.77;4.13;;;;;;;;;;4995679;28;20165;-56
2022/03/19 00:50:59;;;;;;;19.55;4.50;;;2.90;99.90;;;;;;4996320;28;20073;-56
2022/03/19 00:53:25;;;;;;;14.80;2.60;;;;;;;;;;4995644;28;20034;-56
2022/03/19 00:55:52;;;;;;;14.50;3.30;;;;;;;;;;4995819;28;20045;-55
2022/03/19 00:58:18;;;;;;;17.17;3.50;;;;;;;;;;4994938;28;20060;-56
2022/03/19 01:00:44;;;;;;;17.60;4.53;;;;;;;;;;4995762;28;20057;-56
2022/03/19 01:03:10;;;;;;;13.68;3.53;;;;;;;;;;4995235;28;20129;-53
2022/03/19 01:05:36;;;;;;;17.35;3.97;;;;;;;;;;4995669;28;20414;-53
2022/03/19 01:08:02;;;;;;;17.60;4.05;;;;;;;;;;4995765;28;20116;-55
2022/03/19 01:10:29;;;;;;;15.60;2.70;;;2.80;99.90;;;;;;4996409;28;20034;-53
2022/03/19 01:12:56;;;;;;;12.85;3.05;;;2.80;99.90;;;;;;4995169;28;20140;-56
2022/03/19 01:15:23;;;;;;;21.92;3.83;;;2.80;99.90;;;;;;4995172;28;20042;-56
2022/03/19 01:17:51;;;;;;;14.13;4.20;;;2.80;99.90;;;;;;4994184;28;20549;-55
2022/03/19 01:20:17;;;;;;;17.98;3.40;;;;;;;;;;4995211;28;20044;-55
2022/03/19 01:22:44;;;;;;;18.92;3.03;;;2.80;99.90;;;;;;4994720;28;20631;-57
2022/03/19 01:25:13;;;;;;;21.27;4.55;;;2.60;99.90;;;;;;4994632;28;20423;-53
2022/03/19 01:27:39;;;;;;;14.90;2.35;;;;;;;;;;4976820;28;20046;-54
2022/03/19 01:30:07;;;;;;;12.23;2.75;;;2.70;99.90;;;;;;4994189;28;20184;-57
2022/03/19 01:32:34;;;;;;;20.15;2.78;;;2.60;99.90;;;;;;4995580;28;20502;-56
2022/03/19 01:35:04;;;;;;;17.80;3.83;;;2.50;99.90;;;;;;4994200;28;20809;-54
2022/03/19 01:37:30;;;;;;;15.77;2.67;;;;;;;;;;4994591;28;20633;-55
2022/03/19 01:39:56;;;;;;;11.85;2.45;;;;;;;;;;4994580;28;20438;-56
2022/03/19 01:42:24;;;;;;;11.57;2.45;;;2.40;99.90;;;;;;4995317;28;20185;-55
2022/03/19 01:44:51;;;;;;;11.98;2.38;;;;;;;;;;4996417;28;20041;-55
2022/03/19 01:47:17;;;;;;;11.45;2.70;;;;;;;;;;4994572;28;20038;-54
2022/03/19 01:49:45;;;;;;;13.80;2.75;;;2.00;99.90;;;;;;4994513;28;20201;-54
2022/03/19 01:52:11;;;;;;;23.55;4.55;;;;;;;;;;4995623;28;20056;-53
2022/03/19 01:54:39;;;;;;;15.30;2.92;;;2.10;99.90;;;;;;4995457;28;20045;-56
2022/03/19 01:57:07;;;;;;;16.13;3.03;;;2.20;99.90;;;;;;4996151;28;20058;-54
2022/03/19 01:59:36;;;;;;;14.02;2.67;;;2.30;99.90;;;;;;4996254;28;20113;-55
2022/03/19 02:02:07;;;;;;;14.73;2.70;;;2.20;99.90;;;;;;4995467;28;20073;-54
2022/03/19 02:04:37;;;;;;;26.40;3.40;;;2.20;99.90;;;;;;4996154;28;20050;-54
2022/03/19 02:07:05;;;;;;;15.20;2.95;;;2.30;99.90;;;;;;4995357;28;20048;-56
2022/03/19 02:09:31;;;;;;;18.33;3.70;;;;;;;;;;4995590;28;20056;-55
2022/03/19 02:11:57;;;;;;;25.48;4.30;;;;;;;;;;4994395;28;20224;-54
2022/03/19 02:14:23;;;;;;;14.35;2.83;;;;;;;;;;4995446;28;20041;-53
2022/03/19 02:16:49;;;;;;;19.98;3.67;;;;;;;;;;4994311;28;20069;-52
2022/03/19 02:19:16;;;;;;;17.10;3.28;;;;;;;;;;4994135;28;20096;-55
2022/03/19 02:21:44;;;;;;;14.52;2.67;;;2.40;99.90;;;;;;4994103;28;20507;-54
2022/03/19 02:26:58;;;;;;;20.52;3.40;;;2.20;99.90;;;;;;4994650;28;20042;-54
2022/03/19 02:29:24;;;;;;;11.75;3.13;;;;;;;;;;4994527;28;20038;-55
2022/03/19 02:32:02;;;;;;;15.15;3.42;;;2.10;99.90;;;;;;4993253;28;20042;-55
2022/03/19 02:34:28;;;;;;;17.85;3.38;;;;;;;;;;4994318;28;20540;-54
2022/03/19 02:36:55;;;;;;;20.10;3.17;;;;;;;;;;4993770;28;20049;-53
2022/03/19 02:39:33;;;;;;;23.63;3.70;;;2.30;99.90;;;;;;4992548;28;20407;-55
2022/03/19 02:42:03;;;;;;;22.02;3.65;;;2.30;99.90;;;;;;4993986;28;20491;-55
2022/03/19 02:44:29;;;;;;;14.90;3.47;;;2.20;99.90;;;;;;4976548;28;20563;-54
2022/03/19 02:46:58;;;;;;;18.77;4.15;;;2.30;99.90;;;;;;4993682;28;20042;-55
2022/03/19 02:49:24;;;;;;;19.80;3.47;;;;;;;;;;4993656;28;20092;-56
2022/03/19 02:51:52;;;;;;;14.55;3.60;;;;;;;;;;4993848;28;20037;-54
2022/03/19 02:54:26;;;;;;;15.00;3.55;;;2.40;99.90;;;;;;4993477;28;20038;-55
2022/03/19 02:56:53;;;;;;;16.70;3.08;;;;;;;;;;4993248;28;20481;-53
2022/03/19 02:59:27;;;;;;;17.38;3.25;;;2.70;99.90;;;;;;4994236;28;20053;-52
2022/03/19 03:02:13;;;;;;;17.40;3.90;;;2.60;99.90;;;;;;4994806;28;20064;-53
2022/03/19 03:04:39;;;;;;;17.60;3.17;;;;;;;;;;4995573;28;20057;-54
2022/03/19 03:07:06;;;;;;;19.60;3.97;;;;;;;;;;4993871;28;20423;-52
2022/03/19 03:09:33;;;;;;;22.10;4.18;;;2.40;99.90;;;;;;4993501;28;20413;-52
2022/03/19 03:12:01;;;;;;;17.77;3.45;;;;;;;;;;4993997;28;20498;-51
2022/03/19 03:14:28;;;;;;;22.42;3.58;;;;;;;;;;4994513;28;20038;-51
2022/03/19 03:16:54;;;;;;;19.42;3.88;;;;;;;;;;4995014;28;20042;-53
2022/03/19 03:19:21;;;;;;;18.45;3.70;;;;;;;;;;4993652;28;20121;-51
2022/03/19 03:21:47;;;;;;;16.98;3.45;;;2.70;99.90;;;;;;4994686;28;20049;-55
2022/03/19 03:24:15;;;;;;;14.68;3.47;;;3.00;99.90;;;;;;4995037;28;20088;-53
2022/03/19 03:26:41;;;;;;;20.45;4.35;;;2.70;99.90;;;;;;4993519;28;20050;-50
2022/03/19 03:29:08;;;;;;;24.90;4.70;;;;;;;;;;4992366;28;20038;-54
2022/03/19 03:31:34;;;;;;;13.85;3.45;;;3.00;99.90;;;;;;4993340;28;20038;-54
2022/03/19 03:34:01;;;;;;;16.50;4.07;;;;;;;;;;4991716;28;20066;-55
2022/03/19 03:36:27;;;;;;;19.83;4.18;;;;;;;;;;4974506;28;20506;-52
2022/03/19 03:38:53;;;;;;;15.35;4.70;;;;;;;;;;4993085;28;20046;-53
2022/03/19 03:41:19;;;;;;;17.73;4.22;;;3.00;99.90;;;;;;4991650;28;20050;-51
2022/03/19 03:43:45;;;;;;;17.35;5.03;;;;;;;;;;4991931;28;20064;-53
2022/03/19 03:46:12;;;;;;;16.35;4.50;;;;;;;;;;4991580;28;20039;-49
2022/03/19 03:48:38;;;;;;;16.35;4.55;;;;;;;;;;4992621;28;20618;-54
2022/03/19 03:51:07;;;;;;;17.15;5.05;;;2.80;99.90;;;;;;4993017;28;20132;-53
2022/03/19 03:53:34;;;;;;;19.65;4.35;;;2.80;99.90;;;;;;4992446;28;20038;-52
2022/03/19 03:56:00;;;;;;;28.80;5.32;;;;;;;;;;4991202;28;20093;-53
2022/03/19 03:58:27;;;;;;;21.13;5.07;;;;;;;;;;4974273;28;20136;-54
2022/03/19 04:00:53;;;;;;;20.63;4.70;;;;;;;;;;4992750;28;20058;-53
2022/03/19 04:03:20;;;;;;;20.27;4.75;;;2.60;99.90;;;;;;4992684;28;20815;-54
2022/03/19 04:05:46;;;;;;;21.17;5.70;;;;;;;;;;4991979;28;20405;-55
2022/03/19 04:08:13;;;;;;;18.52;4.32;;;2.60;99.90;;;;;;4991833;28;20057;-52
2022/03/19 04:10:39;;;;;;;23.70;7.07;;;;;;;;;;4992371;28;20063;-54
2022/03/19 04:13:05;;;;;;;24.27;5.15;;;;;;;;;;4991412;28;20041;-50
2022/03/19 04:15:33;;;;;;;24.17;7.18;;;2.80;99.90;;;;;;4991698;28;20473;-52
2022/03/19 04:18:01;;;;;;;21.80;5.28;;;;;;;;;;4993348;28;20033;-55
2022/03/19 04:20:28;;;;;;;22.52;6.63;;;;;;;;;;4977004;28;20046;-52
2022/03/19 04:22:54;;;;;;;18.52;5.78;;;;;;;;;;4993816;28;20343;-53
2022/03/19 04:25:22;;;;;;;21.98;5.63;;;2.60;99.90;;;;;;4993383;28;20045;-52
2022/03/19 04:27:50;;;;;;;18.63;5.78;;;2.50;99.90;;;;;;4992285;28;20418;-52
2022/03/19 04:30:18;;;;;;;22.30;6.15;;;2.60;99.90;;;;;;4994286;28;20038;-52
2022/03/19 04:32:48;;;;;;;23.10;5.35;;;2.50;99.90;;;;;;4992160;28;20037;-54
2022/03/19 04:38:06;;;;;;;20.13;6.43;;;2.60;99.90;;;;;;4992788;28;20541;-53
2022/03/19 04:40:35;;;;;;;25.60;6.70;;;2.60;99.90;;;;;;4993667;28;20054;-54
2022/03/19 04:43:01;;;;;;;17.42;5.93;;;;;;;;;;4993987;28;20541;-53
2022/03/19 04:45:27;;;;;;;21.85;6.43;;;;;;;;;;4992046;28;20077;-51
2022/03/19 04:47:53;;;;;;;16.75;5.60;;;;;;;;;;4989979;28;20052;-51
2022/03/19 04:50:20;;;;;;;22.73;6.25;;;;;;;;;;4991229;28;20326;-52
2022/03/19 04:52:47;;;;;;;28.65;6.68;;;2.70;99.90;;;;;;4991524;28;20050;-52
2022/03/19 04:55:14;;;;;;;18.50;5.85;;;2.80;99.90;;;;;;4991404;28;20100;-51
2022/03/19 04:57:41;;;;;;;26.48;7.30;;;;;;;;;;4991712;28;20581;-54
2022/03/19 05:00:08;;;;;;;21.77;6.10;;;;;;;;;;4990412;28;20580;-52
2022/03/19 05:02:37;;;;;;;20.15;6.20;;;;;;;;;;4990536;28;20073;-52
2022/03/19 05:05:04;;;;;;;22.73;6.75;;;2.80;99.90;;;;;;4991085;28;20137;-52
2022/03/19 05:07:35;;;;;;;22.17;7.20;;;;;;;;;;4991604;28;20044;-52
2022/03/19 05:12:52;;;;;;;24.38;6.97;;;2.60;99.90;;;;;;4990770;28;21110;-52
2022/03/19 05:15:19;;;;;;;26.02;7.65;;;;;;;;;;4992756;28;20041;-53
2022/03/19 05:17:45;;;;;;;23.27;7.07;;;;;;;;;;4991931;28;20046;-54
2022/03/19 05:20:12;;;;;;;22.02;7.30;;;2.70;99.90;;;;;;4992420;28;20046;-54
2022/03/19 05:22:38;;;;;;;22.50;7.30;;;;;;;;;;4992453;28;20038;-54
2022/03/19 05:25:05;;;;;;;22.85;7.13;;;;;;;;;;4995322;28;20057;-53
2022/03/19 05:27:31;;;;;;;31.00;8.30;;;;;;;;;;4996165;28;20042;-53
2022/03/19 05:29:58;;;;;;;19.92;7.25;;;;;;;;;;4996726;28;20041;-52
2022/03/19 05:32:24;;;;;;;23.77;9.23;;;;;;;;;;4996429;28;20073;-52
2022/03/19 05:34:51;;;;;;;22.88;7.10;;;;;;;;;;4995405;28;20051;-55
2022/03/19 05:37:17;;;;;;;21.67;7.72;;;;;;;;;;4994286;28;20042;-49
2022/03/19 05:39:43;;;;;;;20.88;7.47;;;;;;;;;;4996764;28;20103;-55
2022/03/19 05:42:11;;;;;;;22.40;8.35;;;;;;;;;;4996403;28;20070;-52
2022/03/19 05:44:39;;;;;;;19.75;7.38;;;2.60;99.90;;;;;;4995700;28;20053;-53
2022/03/19 05:47:05;;;;;;;24.30;7.75;;;;;;;;;;4995683;28;20041;-49
2022/03/19 05:49:31;;;;;;;26.25;7.97;;;;;;;;;;4996173;28;20050;-50
2022/03/19 05:51:58;;;;;;;28.90;9.02;;;;;;;;;;4997041;28;20043;-49
2022/03/19 05:54:24;;;;;;;22.17;7.57;;;;;;;;;;4995696;28;20142;-50
2022/03/19 05:56:51;;;;;;;17.95;8.02;;;;;;;;;;4995770;28;20072;-51
2022/03/19 05:59:19;;;;;;;21.30;7.63;;;;;;;;;;4995517;28;20088;-52
2022/03/19 06:01:45;;;;;;;24.45;8.43;;;;;;;;;;4996519;28;20072;-51
2022/03/19 06:04:11;;;;;;;17.20;7.07;;;;;;;;;;4995509;28;20056;-54
2022/03/19 06:06:37;;;;;;;25.35;8.57;;;;;;;;;;4994386;28;20536;-51
2022/03/19 06:09:04;;;;;;;24.30;8.35;;;3.10;99.90;;;;;;4993686;28;20360;-53
2022/03/19 06:11:30;;;;;;;18.25;7.00;;;;;;;;;;4993940;28;20053;-54
2022/03/19 06:13:56;;;;;;;20.13;6.68;;;;;;;;;;4994317;28;20041;-53
2022/03/19 06:16:22;;;;;;;20.77;6.95;;;;;;;;;;4993628;28;20045;-52
2022/03/19 06:18:52;;;;;;;19.08;7.38;;;;;;;;;;4993818;28;20038;-54
2022/03/19 06:21:23;;;;;;;20.45;6.63;;;4.30;99.90;;;;;;4994505;28;20670;-57
2022/03/19 06:23:50;;;;;;;21.23;7.25;;;4.30;99.90;;;;;;4994082;28;20087;-54
2022/03/19 06:26:18;;;;;;;17.42;6.18;;;;;;;;;;4994553;28;20042;-54
2022/03/19 06:28:44;;;;;;;16.98;6.97;;;;;;;;;;4994481;28;20146;-55
2022/03/19 06:31:10;;;;;;;21.40;6.50;;;;;;;;;;4994337;28;20049;-54
2022/03/19 06:33:41;;;;;;;19.23;6.05;;;5.50;99.90;;;;;;4993206;28;20041;-53
2022/03/19 06:38:53;;;;;;;20.67;6.97;;;;;;;;;;4992795;28;20053;-55
2022/03/19 06:41:19;;;;;;;24.90;7.03;;;;;;;;;;4993459;28;20065;-55
2022/03/19 06:43:44;;;;;;;18.13;6.85;;;8.20;99.90;;;;;;4992838;28;20137;-56
2022/03/19 06:46:12;;;;;;;18.05;6.10;;;8.90;99.90;;;;;;4992878;28;20125;-58
2022/03/19 06:48:38;;;;;;;18.10;6.28;;;9.10;99.90;;;;;;4992633;28;20049;-56
2022/03/19 06:51:04;;;;;;;15.73;6.13;;;9.70;99.90;;;;;;4991841;28;20046;-57
2022/03/19 06:53:29;;;;;;;16.10;6.38;;;10.30;99.90;;;;;;4992916;28;20050;-57
2022/03/19 06:55:55;;;;;;;15.85;5.55;;;11.80;99.90;;;;;;4993369;28;20037;-58
2022/03/19 06:58:21;;;;;;;12.88;5.70;;;11.40;99.90;;;;;;4975686;28;21202;-56
2022/03/19 07:00:47;;;;;;;14.00;5.65;;;13.30;99.90;;;;;;4994953;28;20058;-57
2022/03/19 07:03:13;;;;;;;17.23;6.03;;;11.70;99.90;;;;;;4993310;28;20092;-57
2022/03/19 07:05:39;;;;;;;14.48;5.72;;;12.30;99.90;;;;;;4992084;28;20136;-57
2022/03/19 07:08:08;;;;;;;15.45;4.50;;;11.60;99.90;;;;;;4994067;28;20451;-58
2022/03/19 07:10:35;;;;;;;14.95;6.07;;;11.00;99.90;;;;;;4993833;28;20116;-57
2022/03/19 07:13:02;;;;;;;16.90;5.88;;;10.50;99.90;;;;;;4991008;28;20054;-57
2022/03/19 07:15:29;;;;;;;19.38;5.95;;;10.50;99.90;;;;;;4992700;28;20063;-57
2022/03/19 07:18:00;;;;;;;16.58;5.80;;;10.80;99.90;;;;;;4991847;28;20038;-57
2022/03/19 07:20:28;;;;;;;22.13;6.57;;;10.70;99.90;;;;;;4990044;28;20124;-56
2022/03/19 07:23:05;;;;;;;14.88;5.13;;;11.00;99.90;;;;;;4990404;28;20034;-56
2022/03/19 07:25:36;;;;;;;14.35;5.70;;;10.90;99.90;;;;;;4990457;28;20069;-56
2022/03/19 07:28:07;;;;;;;17.00;5.22;;;11.00;99.90;;;;;;4990024;28;20084;-56
2022/03/19 07:30:35;;;;;;;13.20;4.95;;;11.50;99.90;;;;;;4993009;28;20042;-57
2022/03/19 07:33:01;;;;;;;15.18;5.15;;;11.40;99.90;;;;;;4991018;28;20041;-57
2022/03/19 07:35:27;;;;;;;18.05;5.22;;;11.20;99.90;;;;;;4974003;28;20719;-57
2022/03/19 07:37:53;;;;;;;13.98;4.78;;;12.70;99.90;;;;;;4992353;28;20034;-57
2022/03/19 07:43:10;;;;;;;16.55;5.05;;;13.10;99.90;;;;;;4991030;28;20049;-58
2022/03/19 07:45:36;;;;;;;13.93;4.72;;;12.00;99.90;;;;;;4991261;28;20045;-57
2022/03/19 07:48:03;;;;;;;16.52;4.57;;;11.90;99.90;;;;;;4991624;28;20045;-57
2022/03/19 07:50:29;;;;;;;15.18;4.53;;;10.30;99.90;;;;;;4993507;28;20574;-57
2022/03/19 07:52:55;;;;;;;13.32;4.45;;;10.10;99.90;;;;;;4991868;28;20514;-58
2022/03/19 07:55:21;;;;;;;19.95;5.47;;;10.10;99.90;;;;;;4991013;28;20116;-57
2022/03/19 07:57:48;;;;;;;19.00;5.95;;;10.50;99.90;;;;;;4991272;28;20518;-58
2022/03/19 08:00:14;;;;;;;13.48;4.82;;;11.40;99.90;;;;;;4991752;28;20050;-58
2022/03/19 08:02:40;;;;;;;14.02;5.07;;;11.30;99.90;;;;;;4992331;28;20049;-58
2022/03/19 08:05:07;;;;;;;10.88;4.20;;;11.50;99.90;;;;;;4991490;28;20161;-57
2022/03/19 08:07:32;;;;;;;12.68;4.38;;;12.10;99.90;;;;;;4990125;28;20435;-57
2022/03/19 08:09:58;;;;;;;16.63;4.47;;;13.00;99.90;;;;;;4989964;28;20045;-57
2022/03/19 08:12:27;;;;;;;12.65;4.05;;;13.00;99.90;;;;;;4991610;28;20038;-57
2022/03/19 08:14:53;;;;;;;13.43;3.65;;;14.80;99.90;;;;;;4989839;28;20125;-56
2022/03/19 08:17:18;;;;;;;13.65;3.78;;;15.10;99.90;;;;;;4990552;28;20050;-56
2022/03/19 08:19:45;;;;;;;16.73;4.05;;;13.20;99.90;;;;;;4974355;28;20048;-57
2022/03/19 08:22:13;;;;;;;11.35;3.70;;;12.90;99.90;;;;;;4990128;28;20037;-57
2022/03/19 08:24:39;;;;;;;12.93;3.75;;;13.00;99.90;;;;;;4989674;28;20046;-58
2022/03/19 08:27:04;;;;;;;12.27;3.97;;;11.90;99.90;;;;;;4990644;28;20049;-58
2022/03/19 08:29:30;;;;;;;11.40;3.60;;;11.80;99.90;;;;;;4991018;28;20069;-58
2022/03/19 08:31:56;;;;;;;14.27;4.72;;;11.60;99.90;;;;;;4990764;28;20049;-57
2022/03/19 08:34:22;;;;;;;16.23;3.45;;;11.30;99.90;;;;;;4991639;28;20069;-57
2022/03/19 08:36:52;;;;;;;13.05;4.85;;;11.30;99.90;;;;;;4989694;28;20373;-56
2022/03/19 08:42:03;;;;;;;13.18;3.67;;;12.40;99.90;;;;;;4989323;28;20579;-57
2022/03/19 08:44:29;;;;;;;15.50;4.35;;;11.00;99.90;;;;;;4988835;28;20038;-58
2022/03/19 08:46:55;;;;;;;13.45;4.25;;;10.80;99.90;;;;;;4990949;28;20042;-57
2022/03/19 08:49:21;;;;;;;15.98;3.65;;;11.40;99.90;;;;;;4971272;28;20058;-57
2022/03/19 08:51:47;;;;;;;13.82;3.38;;;11.50;99.90;;;;;;4989926;28;20041;-56
2022/03/19 08:54:15;;;;;;;13.48;3.45;;;10.90;99.90;;;;;;4987801;28;20475;-56
2022/03/19 08:56:47;;;;;;;15.15;4.40;;;11.30;99.90;;;;;;4989615;28;20049;-57
2022/03/19 08:59:13;;;;;;;18.23;4.13;;;11.20;99.90;;;;;;4993699;28;20054;-57
2022/03/19 09:01:40;;;;;;;12.70;3.47;;;11.60;99.90;;;;;;4994792;28;20057;-57
2022/03/19 09:04:07;;;;;;;17.08;5.10;;;11.90;99.90;;;;;;4993575;28;20728;-57
2022/03/19 09:06:33;;;;;;;13.80;3.83;;;12.00;99.90;;;;;;4993727;28;20111;-57
2022/03/19 09:09:03;;;;;;;14.18;3.53;;;12.20;99.90;;;;;;4995158;28;20049;-58
2022/03/19 09:11:30;;;;;;;20.00;4.15;;;12.60;99.90;;;;;;4995716;28;20042;-57
2022/03/19 09:13:57;;;;;;;13.23;3.05;;;12.30;99.90;;;;;;4995845;28;20149;-58
2022/03/19 09:16:26;;;;;;;12.15;3.67;;;11.70;99.90;;;;;;4993524;28;20038;-57
2022/03/19 09:18:54;;;;;;;11.65;3.10;;;13.00;99.90;;;;;;4992780;28;20049;-58
2022/03/19 09:21:19;;;;;;;13.38;3.22;;;13.50;99.90;;;;;;4993040;28;20536;-57
2022/03/19 09:23:45;;;;;;;12.68;2.70;;;15.00;99.90;;;;;;4995205;28;20096;-57
2022/03/19 09:26:12;;;;;;;12.55;2.88;;;12.90;99.90;;;;;;4994703;28;20041;-57
2022/03/19 09:28:38;;;;;;;11.80;2.85;;;12.70;99.90;;;;;;4977967;28;20034;-57
2022/03/19 09:31:06;;;;;;;14.75;3.75;;;12.50;99.90;;;;;;4976762;28;20561;-57
2022/03/19 09:33:32;;;;;;;11.65;3.53;;;12.60;99.90;;;;;;4994909;28;20070;-57
2022/03/19 09:36:01;;;;;;;10.18;3.10;;;12.30;99.90;;;;;;4978093;28;20211;-58
2022/03/19 09:38:28;;;;;;;13.77;3.83;;;13.90;99.90;;;;;;4996114;28;20944;-58
2022/03/19 09:40:58;;;;;;;10.55;2.90;;;13.00;99.90;;;;;;4992359;28;20038;-57
2022/03/19 09:43:28;;;;;;;11.27;2.90;;;13.20;99.90;;;;;;4995255;28;20091;-57
2022/03/19 09:45:55;;;;;;;9.60;3.08;;;13.20;99.90;;;;;;4995273;28;20124;-57
2022/03/19 09:48:21;;;;;;;11.75;4.43;;;15.70;99.90;;;;;;4977422;28;20422;-58
2022/03/19 09:50:51;;;;;;;16.70;3.33;;;13.70;99.90;;;;;;4997236;28;20048;-58
2022/03/19 09:53:19;;;;;;;15.10;3.40;;;15.30;99.90;;;;;;4995816;28;20034;-57
2022/03/19 09:55:46;;;;;;;12.57;4.18;;;14.30;99.90;;;;;;4995520;28;20107;-58
2022/03/19 09:58:15;;;;;;;11.75;2.80;;;14.90;99.90;;;;;;4994789;28;20042;-57
2022/03/19 10:00:41;;;;;;;10.65;3.08;;;13.70;99.90;;;;;;4993629;28;20053;-57
2022/03/19 10:03:09;;;;;;;11.02;2.67;;;12.80;99.90;;;;;;4994058;28;20132;-57
2022/03/19 10:08:43;;;;;;;9.48;2.70;;;12.10;99.90;;;;;;4996065;28;20148;-57
2022/03/19 10:11:13;;;;;;;10.18;2.15;;;11.80;99.90;;;;;;4993685;28;20110;-57
2022/03/19 10:13:45;;;;;;;13.48;2.47;;;12.80;99.90;;;;;;4993491;28;20054;-57
2022/03/19 10:16:24;;;;;;;17.45;4.03;;;12.10;99.90;;;;;;4993879;28;20038;-57
2022/03/19 10:19:02;;;;;;;10.60;2.53;;;11.80;99.90;;;;;;4994889;28;20132;-57
2022/03/19 10:21:29;;;;;;;13.25;2.78;;;11.50;99.90;;;;;;4992624;28;20046;-57
2022/03/19 10:23:59;;;;;;;10.25;2.67;;;11.50;99.90;;;;;;4993654;28;20041;-58
2022/03/19 10:26:37;;;;;;;10.77;2.97;;;11.40;99.90;;;;;;4994716;28;20290;-58
2022/03/19 10:29:09;;;;;;;13.50;3.45;;;11.60;99.90;;;;;;4992489;28;20494;-57
2022/03/19 10:31:44;;;;;;;12.10;2.67;;;11.50;99.90;;;;;;4994379;28;20034;-57
2022/03/19 10:34:10;;;;;;;13.02;2.88;;;11.90;99.90;;;;;;4994088;28;20054;-58
2022/03/19 10:36:42;;;;;;;9.52;1.90;;;11.60;99.90;;;;;;4992635;28;20042;-57
2022/03/19 10:39:21;;;;;;;10.80;2.97;;;11.60;99.90;;;;;;4992806;28;20041;-58
2022/03/19 10:41:48;;;;;;;8.75;2.00;;;11.70;99.90;;;;;;4992917;28;20033;-57
2022/03/19 10:44:19;;;;;;;5.03;1.55;;;12.80;99.90;;;;;;4993221;28;20041;-58
2022/03/19 10:46:56;;;;;;;9.43;2.55;;;11.70;99.90;;;;;;4992875;28;20046;-57
2022/03/19 10:49:25;;;;;;;13.70;2.85;;;11.80;99.90;;;;;;4992291;28;20097;-57
2022/03/19 10:51:54;;;;;;;11.00;2.50;;;11.80;99.90;;;;;;4993281;28;20038;-57
2022/03/19 10:54:20;;;;;;;7.20;1.90;;;11.90;99.90;;;;;;4994682;28;20660;-58
2022/03/19 10:56:47;;;;;;;9.25;2.58;;;12.00;99.90;;;;;;4994857;28;20049;-58
2022/03/19 10:59:15;;;;;;;7.65;1.95;;;11.80;99.90;;;;;;4992475;28;20042;-57
2022/03/19 11:01:42;;;;;;;7.93;1.90;;;12.10;99.90;;;;;;4992871;28;20768;-57
2022/03/19 11:04:09;;;;;;;10.10;2.33;;;12.90;99.90;;;;;;4993539;28;20046;-58
2022/03/19 11:06:40;;;;;;;14.55;2.58;;;12.20;99.90;;;;;;4994546;28;20044;-58
2022/03/19 11:09:10;;;;;;;12.95;2.50;;;12.30;99.90;;;;;;4993300;28;20042;-57
2022/03/19 11:11:48;;;;;;;9.60;1.88;;;13.50;99.90;;;;;;4993754;28;21904;-58
2022/03/19 11:14:23;;;;;;;11.77;3.58;;;12.50;99.90;;;;;;4991975;28;20514;-63
2022/03/19 11:17:27;;;;;;;8.85;2.92;;;12.50;99.90;;;;;;4993154;28;20411;-58
2022/03/19 11:20:13;;;;;;;6.22;1.48;;;12.60;99.90;;;;;;4991888;28;20038;-57
2022/03/19 11:22:40;;;;;;;5.18;1.63;;;12.50;99.90;;;;;;4991744;28;20053;-58
2022/03/19 11:25:27;;;;;;;12.13;2.35;;;12.40;99.90;;;;;;4990978;28;20045;-57
2022/03/19 11:28:07;;;;;;;9.15;2.00;;;12.50;99.90;;;;;;4992040;28;20058;-58
2022/03/19 11:30:38;;;;;;;5.80;1.25;;;12.50;99.90;;;;;;4990529;28;20080;-58
2022/03/19 11:33:06;;;;;;;9.35;1.85;;;13.30;99.90;;;;;;4993249;28;20046;-58
2022/03/19 11:35:40;;;;;;;5.00;1.40;;;12.30;99.90;;;;;;4973853;28;20050;-57
2022/03/19 11:38:13;;;;;;;8.85;1.85;;;13.40;99.90;;;;;;4992112;28;20038;-57
2022/03/19 11:40:46;;;;;;;6.85;1.60;;;12.40;99.90;;;;;;4991911;28;20050;-57
2022/03/19 11:43:16;;;;;;;9.75;2.05;;;12.50;99.60;;;;;;4991263;28;20108;-58
2022/03/19 11:46:03;;;;;;;10.45;2.53;;;12.70;99.90;;;;;;4992455;28;20049;-58
2022/03/19 11:48:39;;;;;;;1529.05;746.25;;;12.50;99.90;;;;;;4992272;28;20044;-56
2022/03/19 11:51:24;;;;;;;591.33;529.33;;;12.60;98.70;;;;;;4990838;28;20503;-59
2022/03/19 11:54:19;;;;;;;864.58;771.42;;;12.50;98.60;;;;;;4993622;28;20041;-59
2022/03/19 11:56:46;;;;;;;62.63;13.93;;;10.90;98.80;;;;;;4974734;28;21634;-59
2022/03/19 11:59:48;;;;;;;5.60;1.60;;;12.80;98.60;;;;;;4992268;28;20103;-59
2022/03/19 12:02:14;;;;;;;5.05;1.10;;;12.40;98.20;;;;;;4990582;28;20053;-59
2022/03/19 12:04:47;;;;;;;6.45;1.30;;;13.60;98.20;;;;;;4993784;28;20050;-59
2022/03/19 12:07:41;;;;;;;4.78;1.10;;;12.70;98.50;;;;;;4992715;28;20072;-59
2022/03/19 12:10:16;;;;;;;10.25;2.80;;;12.70;97.20;;;;;;4992328;28;20510;-59
2022/03/19 12:12:45;;;;;;;4.13;0.90;;;13.70;96.80;;;;;;4993491;28;20050;-59
2022/03/19 12:15:29;;;;;;;4.13;1.00;;;12.50;97.00;;;;;;4992055;28;20223;-58
2022/03/19 12:18:22;;;;;;;5.72;1.40;;;12.50;98.00;;;;;;4993749;28;20038;-59
2022/03/19 12:20:49;;;;;;;4.47;1.33;;;12.50;98.50;;;;;;4992570;28;20045;-59
2022/03/19 12:23:15;;;;;;;5.53;1.27;;;12.70;97.60;;;;;;4992763;28;20033;-59
2022/03/19 12:25:58;;;;;;;4.63;1.17;;;12.80;98.30;;;;;;4993395;28;20129;-59
2022/03/19 12:28:24;;;;;;;4.50;1.00;;;12.80;97.60;;;;;;4992671;28;20072;-59
2022/03/19 12:30:50;;;;;;;4.57;1.30;;;13.30;98.20;;;;;;4992307;28;20038;-59
2022/03/19 12:33:16;;;;;;;4.07;1.10;;;12.70;96.90;;;;;;4991210;28;20690;-59
2022/03/19 12:35:43;;;;;;;2.92;0.85;;;13.70;97.40;;;;;;4991963;28;20045;-59
2022/03/19 12:38:10;;;;;;;4.05;1.13;;;14.60;96.80;;;;;;4990070;28;20526;-59
2022/03/19 12:43:22;;;;;;;3.38;0.98;;;13.60;96.00;;;;;;4972696;28;20045;-59
2022/03/19 12:45:50;;;;;;;7.15;1.30;;;12.60;96.70;;;;;;4992001;28;20545;-60
2022/03/19 12:48:20;;;;;;;4.32;1.00;;;12.70;97.80;;;;;;4991971;28;20228;-58
2022/03/19 12:50:50;;;;;;;3.13;0.88;;;12.90;96.00;;;;;;4992298;28;20564;-59
2022/03/19 12:53:28;;;;;;;4.32;0.90;;;12.80;96.30;;;;;;4990671;28;20517;-59
2022/03/19 12:56:22;;;;;;;3.90;1.20;;;14.80;95.30;;;;;;4991892;28;20045;-59
2022/03/19 12:58:53;;;;;;;3.47;0.63;;;12.80;94.80;;;;;;4991226;28;20034;-59
2022/03/19 13:01:26;;;;;;;3.08;0.85;;;12.60;93.80;;;;;;4991233;28;20326;-60
2022/03/19 13:03:58;;;;;;;3.80;1.20;;;12.60;95.20;;;;;;4991991;28;20042;-60
2022/03/19 13:06:36;;;;;;;6.03;1.37;;;12.40;94.20;;;;;;4992342;28;20042;-59
2022/03/19 13:09:03;;;;;;;3.63;1.65;;;12.70;95.10;;;;;;4990595;28;20591;-59
2022/03/19 13:11:43;;;;;;;4.60;1.02;;;12.60;94.90;;;;;;4989868;28;20065;-59
2022/03/19 13:14:19;;;;;;;5.68;1.45;;;12.50;93.20;;;;;;4992000;28;20034;-59
2022/03/19 13:16:52;;;;;;;4.65;1.00;;;13.50;94.00;;;;;;4990765;28;20042;-59
2022/03/19 13:19:18;;;;;;;6.40;0.80;;;12.40;93.50;;;;;;4990472;28;20204;-59
2022/03/19 13:21:49;;;;;;;5.15;1.23;;;13.30;94.00;;;;;;4991606;28;20042;-59
2022/03/19 13:24:20;;;;;;;3.40;1.00;;;13.80;94.50;;;;;;4990500;28;20046;-59
2022/03/19 13:26:47;;;;;;;5.47;1.17;;;12.20;93.00;;;;;;4992062;28;20054;-60
2022/03/19 13:29:18;;;;;;;7.28;1.35;;;12.70;95.10;;;;;;4992263;28;20046;-59
2022/03/19 13:31:57;;;;;;;8.95;1.42;;;12.20;95.30;;;;;;4990649;28;20510;-59
2022/03/19 13:34:24;;;;;;;4.95;1.25;;;12.60;96.10;;;;;;4993506;28;20048;-59
2022/03/19 13:36:51;;;;;;;5.40;1.27;;;13.40;95.80;;;;;;4992033;28;20115;-59
2022/03/19 13:39:25;;;;;;;6.22;1.10;;;12.50;95.90;;;;;;4990600;28;20584;-59
2022/03/19 13:41:54;;;;;;;5.07;1.30;;;12.50;95.10;;;;;;4992841;28;20045;-60
2022/03/19 13:44:40;;;;;;;5.50;1.17;;;12.30;96.10;;;;;;4993771;28;20121;-59